sensor_id;sensor_type;location;lat;lon;timestamp;temperature;humidity
921;DHT22;447;51.332;6.778;2023-12-07T00:00:09;6.00;99.20
921;DHT22;447;51.332;6.778;2023-12-07T00:02:35;6.10;99.20
921;DHT22;447;51.332;6.778;2023-12-07T00:05:01;6.00;99.20
921;DHT22;447;51.332;6.778;2023-12-07T00:07:27;6.00;99.10
921;DHT22;447;51.332;6.778;2023-12-07T00:09:53;6.00;99.10
921;DHT22;447;51.332;6.778;2023-12-07T00:12:19;6.00;99.10
921;DHT22;447;51.332;6.778;2023-12-07T00:14:45;6.00;99.10
921;DHT22;447;51.332;6.778;2023-12-07T00:17:12;6.00;99.10
921;DHT22;447;51.332;6.778;2023-12-07T00:19:40;6.00;99.10
921;DHT22;447;51.332;6.778;2023-12-07T00:22:06;6.00;99.10
921;DHT22;447;51.332;6.778;2023-12-07T00:24:33;6.00;99.10
921;DHT22;447;51.332;6.778;2023-12-07T00:26:59;6.00;99.10
921;DHT22;447;51.332;6.778;2023-12-07T00:29:26;6.00;99.10
921;DHT22;447;51.332;6.778;2023-12-07T00:31:52;6.00;99.10
921;DHT22;447;51.332;6.778;2023-12-07T00:34:20;6.00;99.10
921;DHT22;447;51.332;6.778;2023-12-07T00:36:49;6.00;99.00
921;DHT22;447;51.332;6.778;2023-12-07T00:39:15;6.00;99.10
921;DHT22;447;51.332;6.778;2023-12-07T00:41:45;5.90;99.00
921;DHT22;447;51.332;6.778;2023-12-07T00:44:15;5.90;99.00
921;DHT22;447;51.332;6.778;2023-12-07T00:46:43;5.90;99.00
921;DHT22;447;51.332;6.778;2023-12-07T00:49:09;5.90;99.00
921;DHT22;447;51.332;6.778;2023-12-07T00:51:35;5.90;99.00
921;DHT22;447;51.332;6.778;2023-12-07T00:54:01;5.90;99.00
921;DHT22;447;51.332;6.778;2023-12-07T00:56:27;5.90;99.00
921;DHT22;447;51.332;6.778;2023-12-07T00:58:56;5.90;98.90
921;DHT22;447;51.332;6.778;2023-12-07T01:01:27;5.90;99.00
921;DHT22;447;51.332;6.778;2023-12-07T01:03:56;5.90;99.00
921;DHT22;447;51.332;6.778;2023-12-07T01:06:24;5.90;99.00
921;DHT22;447;51.332;6.778;2023-12-07T01:08:50;5.90;99.00
921;DHT22;447;51.332;6.778;2023-12-07T01:11:19;5.90;99.00
921;DHT22;447;51.332;6.778;2023-12-07T01:13:45;5.90;98.90
921;DHT22;447;51.332;6.778;2023-12-07T01:16:13;5.90;98.90
921;DHT22;447;51.332;6.778;2023-12-07T01:18:39;5.90;98.90
921;DHT22;447;51.332;6.778;2023-12-07T01:21:07;5.90;98.90
921;DHT22;447;51.332;6.778;2023-12-07T01:23:34;5.80;98.90
921;DHT22;447;51.332;6.778;2023-12-07T01:26:00;5.90;98.90
921;DHT22;447;51.332;6.778;2023-12-07T01:28:28;5.80;98.90
921;DHT22;447;51.332;6.778;2023-12-07T01:30:54;5.80;98.90
921;DHT22;447;51.332;6.778;2023-12-07T01:33:23;5.90;98.90
921;DHT22;447;51.332;6.778;2023-12-07T01:35:49;5.80;98.90
921;DHT22;447;51.332;6.778;2023-12-07T01:38:17;5.80;98.90
921;DHT22;447;51.332;6.778;2023-12-07T01:40:46;5.80;98.90
921;DHT22;447;51.332;6.778;2023-12-07T01:43:12;5.80;98.90
921;DHT22;447;51.332;6.778;2023-12-07T01:45:38;5.80;98.90
921;DHT22;447;51.332;6.778;2023-12-07T01:48:04;5.80;98.90
921;DHT22;447;51.332;6.778;2023-12-07T01:50:30;5.80;98.80
921;DHT22;447;51.332;6.778;2023-12-07T01:53:02;5.80;98.80
921;DHT22;447;51.332;6.778;2023-12-07T01:55:29;5.80;98.80
921;DHT22;447;51.332;6.778;2023-12-07T01:57:57;5.80;98.80
921;DHT22;447;51.332;6.778;2023-12-07T02:00:26;5.80;98.80
921;DHT22;447;51.332;6.778;2023-12-07T02:02:53;5.70;98.80
921;DHT22;447;51.332;6.778;2023-12-07T02:05:20;5.80;98.80
921;DHT22;447;51.332;6.778;2023-12-07T02:07:46;5.70;98.70
921;DHT22;447;51.332;6.778;2023-12-07T02:10:14;5.70;98.70
921;DHT22;447;51.332;6.778;2023-12-07T02:12:41;5.70;98.70
921;DHT22;447;51.332;6.778;2023-12-07T02:15:07;5.70;98.70
921;DHT22;447;51.332;6.778;2023-12-07T02:20:10;5.70;98.70
921;DHT22;447;51.332;6.778;2023-12-07T02:22:56;5.70;98.70
921;DHT22;447;51.332;6.778;2023-12-07T02:25:52;5.70;98.70
921;DHT22;447;51.332;6.778;2023-12-07T02:28:18;5.70;98.60
921;DHT22;447;51.332;6.778;2023-12-07T02:30:45;5.70;98.70
921;DHT22;447;51.332;6.778;2023-12-07T02:33:11;5.70;98.70
921;DHT22;447;51.332;6.778;2023-12-07T02:35:39;5.70;99.00
921;DHT22;447;51.332;6.778;2023-12-07T02:38:09;5.70;98.70
921;DHT22;447;51.332;6.778;2023-12-07T02:40:41;5.70;98.70
921;DHT22;447;51.332;6.778;2023-12-07T02:43:08;5.70;98.70
921;DHT22;447;51.332;6.778;2023-12-07T02:45:37;5.70;98.70
921;DHT22;447;51.332;6.778;2023-12-07T02:48:03;5.70;98.70
921;DHT22;447;51.332;6.778;2023-12-07T02:50:30;5.70;98.70
921;DHT22;447;51.332;6.778;2023-12-07T02:52:56;5.70;98.80
921;DHT22;447;51.332;6.778;2023-12-07T02:55:22;5.70;98.80
921;DHT22;447;51.332;6.778;2023-12-07T02:57:49;5.70;98.80
921;DHT22;447;51.332;6.778;2023-12-07T03:00:15;5.70;98.80
921;DHT22;447;51.332;6.778;2023-12-07T03:02:42;5.70;98.80
921;DHT22;447;51.332;6.778;2023-12-07T03:05:08;5.60;98.80
921;DHT22;447;51.332;6.778;2023-12-07T03:07:36;5.60;98.80
921;DHT22;447;51.332;6.778;2023-12-07T03:10:03;5.60;98.80
921;DHT22;447;51.332;6.778;2023-12-07T03:12:29;5.60;98.80
921;DHT22;447;51.332;6.778;2023-12-07T03:14:57;5.60;98.80
921;DHT22;447;51.332;6.778;2023-12-07T03:17:26;5.60;98.90
921;DHT22;447;51.332;6.778;2023-12-07T03:19:56;5.60;98.80
921;DHT22;447;51.332;6.778;2023-12-07T03:22:25;5.60;98.90
921;DHT22;447;51.332;6.778;2023-12-07T03:24:52;5.60;98.90
921;DHT22;447;51.332;6.778;2023-12-07T03:27:21;5.60;98.90
921;DHT22;447;51.332;6.778;2023-12-07T03:29:47;5.60;99.00
921;DHT22;447;51.332;6.778;2023-12-07T03:32:13;5.60;99.00
921;DHT22;447;51.332;6.778;2023-12-07T03:34:39;5.60;98.90
921;DHT22;447;51.332;6.778;2023-12-07T03:37:06;5.60;99.00
921;DHT22;447;51.332;6.778;2023-12-07T03:39:34;5.60;99.00
921;DHT22;447;51.332;6.778;2023-12-07T03:42:03;5.60;99.00
921;DHT22;447;51.332;6.778;2023-12-07T03:44:29;5.60;99.00
921;DHT22;447;51.332;6.778;2023-12-07T03:46:56;5.60;99.00
921;DHT22;447;51.332;6.778;2023-12-07T03:49:22;5.60;99.00
921;DHT22;447;51.332;6.778;2023-12-07T03:51:48;5.60;99.00
921;DHT22;447;51.332;6.778;2023-12-07T03:54:14;5.60;99.10
921;DHT22;447;51.332;6.778;2023-12-07T03:56:40;5.60;99.10
921;DHT22;447;51.332;6.778;2023-12-07T03:59:06;5.60;99.10
921;DHT22;447;51.332;6.778;2023-12-07T04:01:32;5.60;99.10
921;DHT22;447;51.332;6.778;2023-12-07T04:04:03;5.60;99.10
921;DHT22;447;51.332;6.778;2023-12-07T04:06:32;5.60;99.10
921;DHT22;447;51.332;6.778;2023-12-07T04:08:58;5.60;99.10
921;DHT22;447;51.332;6.778;2023-12-07T04:11:24;5.60;99.10
921;DHT22;447;51.332;6.778;2023-12-07T04:13:52;5.60;99.20
921;DHT22;447;51.332;6.778;2023-12-07T04:16:21;5.60;99.20
921;DHT22;447;51.332;6.778;2023-12-07T04:18:49;5.60;99.20
921;DHT22;447;51.332;6.778;2023-12-07T04:21:16;5.60;99.20
921;DHT22;447;51.332;6.778;2023-12-07T04:23:46;5.60;99.20
921;DHT22;447;51.332;6.778;2023-12-07T04:26:13;5.60;99.20
921;DHT22;447;51.332;6.778;2023-12-07T04:28:42;5.60;99.20
921;DHT22;447;51.332;6.778;2023-12-07T04:31:08;5.60;99.20
921;DHT22;447;51.332;6.778;2023-12-07T04:33:34;5.60;99.30
921;DHT22;447;51.332;6.778;2023-12-07T04:36:00;5.50;99.20
921;DHT22;447;51.332;6.778;2023-12-07T04:38:29;5.60;99.60
921;DHT22;447;51.332;6.778;2023-12-07T04:40:55;5.60;99.30
921;DHT22;447;51.332;6.778;2023-12-07T04:43:21;5.60;99.30
921;DHT22;447;51.332;6.778;2023-12-07T04:45:49;5.60;99.30
921;DHT22;447;51.332;6.778;2023-12-07T04:48:15;5.60;99.30
921;DHT22;447;51.332;6.778;2023-12-07T04:50:46;5.60;99.30
921;DHT22;447;51.332;6.778;2023-12-07T04:53:12;5.60;99.30
921;DHT22;447;51.332;6.778;2023-12-07T04:55:38;5.50;99.30
921;DHT22;447;51.332;6.778;2023-12-07T04:58:06;5.60;99.30
921;DHT22;447;51.332;6.778;2023-12-07T05:00:32;5.50;99.30
921;DHT22;447;51.332;6.778;2023-12-07T05:03:01;5.60;99.40
921;DHT22;447;51.332;6.778;2023-12-07T05:05:29;5.50;99.30
921;DHT22;447;51.332;6.778;2023-12-07T05:07:57;5.50;99.30
921;DHT22;447;51.332;6.778;2023-12-07T05:10:28;5.60;99.40
921;DHT22;447;51.332;6.778;2023-12-07T05:12:54;5.60;99.40
921;DHT22;447;51.332;6.778;2023-12-07T05:15:21;5.50;99.40
921;DHT22;447;51.332;6.778;2023-12-07T05:17:48;5.50;99.40
921;DHT22;447;51.332;6.778;2023-12-07T05:20:14;5.50;99.40
921;DHT22;447;51.332;6.778;2023-12-07T05:22:41;5.50;99.40
921;DHT22;447;51.332;6.778;2023-12-07T05:25:09;5.50;99.40
921;DHT22;447;51.332;6.778;2023-12-07T05:27:35;5.50;99.40
921;DHT22;447;51.332;6.778;2023-12-07T05:30:01;5.50;99.40
921;DHT22;447;51.332;6.778;2023-12-07T05:32:30;5.60;99.50
921;DHT22;447;51.332;6.778;2023-12-07T05:34:56;5.60;99.50
921;DHT22;447;51.332;6.778;2023-12-07T05:37:24;5.60;99.50
921;DHT22;447;51.332;6.778;2023-12-07T05:39:52;5.60;99.50
921;DHT22;447;51.332;6.778;2023-12-07T05:42:18;5.60;99.50
921;DHT22;447;51.332;6.778;2023-12-07T05:44:46;5.60;99.50
921;DHT22;447;51.332;6.778;2023-12-07T05:47:12;5.50;99.50
921;DHT22;447;51.332;6.778;2023-12-07T05:49:40;5.50;99.50
921;DHT22;447;51.332;6.778;2023-12-07T05:52:08;5.50;99.40
921;DHT22;447;51.332;6.778;2023-12-07T05:54:38;5.50;99.40
921;DHT22;447;51.332;6.778;2023-12-07T05:57:09;5.50;99.50
921;DHT22;447;51.332;6.778;2023-12-07T05:59:39;5.50;99.40
921;DHT22;447;51.332;6.778;2023-12-07T06:02:14;5.60;99.50
921;DHT22;447;51.332;6.778;2023-12-07T06:04:40;5.50;99.50
921;DHT22;447;51.332;6.778;2023-12-07T06:07:11;5.50;99.50
921;DHT22;447;51.332;6.778;2023-12-07T06:09:40;5.50;99.80
921;DHT22;447;51.332;6.778;2023-12-07T06:12:07;5.50;99.50
921;DHT22;447;51.332;6.778;2023-12-07T06:14:38;5.50;99.50
921;DHT22;447;51.332;6.778;2023-12-07T06:17:04;5.50;99.50
921;DHT22;447;51.332;6.778;2023-12-07T06:19:31;5.50;99.50
921;DHT22;447;51.332;6.778;2023-12-07T06:21:57;5.60;99.60
921;DHT22;447;51.332;6.778;2023-12-07T06:24:26;5.50;99.50
921;DHT22;447;51.332;6.778;2023-12-07T06:26:52;5.50;99.60
921;DHT22;447;51.332;6.778;2023-12-07T06:29:20;5.50;99.60
921;DHT22;447;51.332;6.778;2023-12-07T06:31:46;5.60;99.50
921;DHT22;447;51.332;6.778;2023-12-07T06:34:12;5.60;99.50
921;DHT22;447;51.332;6.778;2023-12-07T06:36:40;5.50;99.50
921;DHT22;447;51.332;6.778;2023-12-07T06:39:09;5.60;99.60
921;DHT22;447;51.332;6.778;2023-12-07T06:41:36;5.60;99.50
921;DHT22;447;51.332;6.778;2023-12-07T06:44:02;5.50;99.50
921;DHT22;447;51.332;6.778;2023-12-07T06:46:30;5.60;99.60
921;DHT22;447;51.332;6.778;2023-12-07T06:48:58;5.50;99.60
921;DHT22;447;51.332;6.778;2023-12-07T06:51:27;5.50;99.50
921;DHT22;447;51.332;6.778;2023-12-07T06:53:53;5.60;99.60
921;DHT22;447;51.332;6.778;2023-12-07T06:56:24;5.60;99.50
921;DHT22;447;51.332;6.778;2023-12-07T06:58:55;5.60;99.40
921;DHT22;447;51.332;6.778;2023-12-07T07:01:24;5.60;99.40
921;DHT22;447;51.332;6.778;2023-12-07T07:03:52;5.60;99.40
921;DHT22;447;51.332;6.778;2023-12-07T07:06:18;5.60;99.50
921;DHT22;447;51.332;6.778;2023-12-07T07:08:44;5.60;99.50
921;DHT22;447;51.332;6.778;2023-12-07T07:11:13;5.60;99.50
921;DHT22;447;51.332;6.778;2023-12-07T07:13:40;5.50;99.50
921;DHT22;447;51.332;6.778;2023-12-07T07:16:07;5.60;99.50
921;DHT22;447;51.332;6.778;2023-12-07T07:18:33;5.50;99.50
921;DHT22;447;51.332;6.778;2023-12-07T07:21:03;5.50;99.50
921;DHT22;447;51.332;6.778;2023-12-07T07:23:30;5.50;99.50
921;DHT22;447;51.332;6.778;2023-12-07T07:25:56;5.50;99.50
921;DHT22;447;51.332;6.778;2023-12-07T07:28:22;5.50;99.50
921;DHT22;447;51.332;6.778;2023-12-07T07:30:49;5.50;99.50
921;DHT22;447;51.332;6.778;2023-12-07T07:33:17;5.50;99.50
921;DHT22;447;51.332;6.778;2023-12-07T07:35:43;5.50;99.50
921;DHT22;447;51.332;6.778;2023-12-07T07:38:11;5.50;99.50
921;DHT22;447;51.332;6.778;2023-12-07T07:40:37;5.50;99.50
921;DHT22;447;51.332;6.778;2023-12-07T07:43:03;5.50;99.50
921;DHT22;447;51.332;6.778;2023-12-07T07:45:29;5.50;99.50
921;DHT22;447;51.332;6.778;2023-12-07T07:47:55;5.50;99.50
921;DHT22;447;51.332;6.778;2023-12-07T07:50:22;5.50;99.50
921;DHT22;447;51.332;6.778;2023-12-07T07:52:48;5.50;99.50
921;DHT22;447;51.332;6.778;2023-12-07T07:55:14;5.50;99.50
921;DHT22;447;51.332;6.778;2023-12-07T07:57:41;5.50;99.50
921;DHT22;447;51.332;6.778;2023-12-07T08:00:09;5.50;99.50
921;DHT22;447;51.332;6.778;2023-12-07T08:02:35;5.50;99.50
921;DHT22;447;51.332;6.778;2023-12-07T08:05:04;5.50;99.50
921;DHT22;447;51.332;6.778;2023-12-07T08:07:32;5.50;99.50
921;DHT22;447;51.332;6.778;2023-12-07T08:09:58;5.50;99.50
921;DHT22;447;51.332;6.778;2023-12-07T08:12:24;5.50;99.50
921;DHT22;447;51.332;6.778;2023-12-07T08:14:50;5.50;99.50
921;DHT22;447;51.332;6.778;2023-12-07T08:17:16;5.50;99.50
921;DHT22;447;51.332;6.778;2023-12-07T08:19:43;5.50;99.50
921;DHT22;447;51.332;6.778;2023-12-07T08:22:09;5.50;99.50
921;DHT22;447;51.332;6.778;2023-12-07T08:24:38;5.50;99.50
921;DHT22;447;51.332;6.778;2023-12-07T08:27:04;5.50;99.50
921;DHT22;447;51.332;6.778;2023-12-07T08:29:33;5.50;99.50
921;DHT22;447;51.332;6.778;2023-12-07T08:31:59;5.50;99.50
921;DHT22;447;51.332;6.778;2023-12-07T08:34:26;5.50;99.50
921;DHT22;447;51.332;6.778;2023-12-07T08:36:53;5.50;99.50
921;DHT22;447;51.332;6.778;2023-12-07T08:39:22;5.50;99.50
921;DHT22;447;51.332;6.778;2023-12-07T08:41:48;5.50;99.50
921;DHT22;447;51.332;6.778;2023-12-07T08:44:16;5.40;99.50
921;DHT22;447;51.332;6.778;2023-12-07T08:46:43;5.50;99.60
921;DHT22;447;51.332;6.778;2023-12-07T08:49:11;5.50;99.60
921;DHT22;447;51.332;6.778;2023-12-07T08:51:37;5.50;99.60
921;DHT22;447;51.332;6.778;2023-12-07T08:54:03;5.50;99.60
921;DHT22;447;51.332;6.778;2023-12-07T08:56:31;5.50;99.70
921;DHT22;447;51.332;6.778;2023-12-07T08:58:57;5.50;99.70
921;DHT22;447;51.332;6.778;2023-12-07T09:01:23;5.50;99.90
921;DHT22;447;51.332;6.778;2023-12-07T09:03:49;5.50;99.70
921;DHT22;447;51.332;6.778;2023-12-07T09:06:15;5.50;99.60
921;DHT22;447;51.332;6.778;2023-12-07T09:08:41;5.50;99.60
921;DHT22;447;51.332;6.778;2023-12-07T09:11:07;5.50;99.60
921;DHT22;447;51.332;6.778;2023-12-07T09:13:34;5.50;99.60
921;DHT22;447;51.332;6.778;2023-12-07T09:16:03;5.50;99.70
921;DHT22;447;51.332;6.778;2023-12-07T09:18:29;5.50;99.90
921;DHT22;447;51.332;6.778;2023-12-07T09:20:55;5.50;99.70
921;DHT22;447;51.332;6.778;2023-12-07T09:23:22;5.50;99.70
921;DHT22;447;51.332;6.778;2023-12-07T09:25:48;5.50;99.70
921;DHT22;447;51.332;6.778;2023-12-07T09:28:14;5.50;99.70
921;DHT22;447;51.332;6.778;2023-12-07T09:30:40;5.50;99.70
921;DHT22;447;51.332;6.778;2023-12-07T09:33:06;5.50;99.80
921;DHT22;447;51.332;6.778;2023-12-07T09:35:33;5.50;99.70
921;DHT22;447;51.332;6.778;2023-12-07T09:38:02;5.50;99.70
921;DHT22;447;51.332;6.778;2023-12-07T09:40:29;5.50;99.70
921;DHT22;447;51.332;6.778;2023-12-07T09:42:55;5.50;99.70
921;DHT22;447;51.332;6.778;2023-12-07T09:45:21;5.50;99.80
921;DHT22;447;51.332;6.778;2023-12-07T09:47:52;5.50;99.80
921;DHT22;447;51.332;6.778;2023-12-07T09:50:23;5.50;99.70
921;DHT22;447;51.332;6.778;2023-12-07T09:52:51;5.50;99.70
921;DHT22;447;51.332;6.778;2023-12-07T09:55:18;5.50;99.70
921;DHT22;447;51.332;6.778;2023-12-07T09:57:46;5.50;99.80
921;DHT22;447;51.332;6.778;2023-12-07T10:00:12;5.50;99.80
921;DHT22;447;51.332;6.778;2023-12-07T10:02:42;5.50;99.80
921;DHT22;447;51.332;6.778;2023-12-07T10:05:09;5.50;99.80
921;DHT22;447;51.332;6.778;2023-12-07T10:07:41;5.50;99.80
921;DHT22;447;51.332;6.778;2023-12-07T10:10:07;5.50;99.80
921;DHT22;447;51.332;6.778;2023-12-07T10:12:35;5.60;99.90
921;DHT22;447;51.332;6.778;2023-12-07T10:15:13;5.50;99.80
921;DHT22;447;51.332;6.778;2023-12-07T10:17:57;5.50;99.80
921;DHT22;447;51.332;6.778;2023-12-07T10:20:25;5.60;99.80
921;DHT22;447;51.332;6.778;2023-12-07T10:25:31;5.60;99.90
921;DHT22;447;51.332;6.778;2023-12-07T10:27:58;5.60;99.80
921;DHT22;447;51.332;6.778;2023-12-07T10:30:26;5.50;99.90
921;DHT22;447;51.332;6.778;2023-12-07T10:32:53;5.50;99.90
921;DHT22;447;51.332;6.778;2023-12-07T10:35:20;5.60;99.90
921;DHT22;447;51.332;6.778;2023-12-07T10:37:46;5.60;99.80
921;DHT22;447;51.332;6.778;2023-12-07T10:40:15;5.60;99.90
921;DHT22;447;51.332;6.778;2023-12-07T10:42:42;5.60;99.90
921;DHT22;447;51.332;6.778;2023-12-07T10:45:12;5.60;99.90
921;DHT22;447;51.332;6.778;2023-12-07T10:47:43;5.60;99.90
921;DHT22;447;51.332;6.778;2023-12-07T10:50:14;5.60;99.90
921;DHT22;447;51.332;6.778;2023-12-07T10:52:51;5.60;99.80
921;DHT22;447;51.332;6.778;2023-12-07T10:55:21;5.60;99.90
921;DHT22;447;51.332;6.778;2023-12-07T10:57:52;5.60;99.90
921;DHT22;447;51.332;6.778;2023-12-07T11:00:20;5.60;99.90
921;DHT22;447;51.332;6.778;2023-12-07T11:02:52;5.60;99.80
921;DHT22;447;51.332;6.778;2023-12-07T11:05:18;5.60;99.80
921;DHT22;447;51.332;6.778;2023-12-07T11:07:52;5.60;99.80
921;DHT22;447;51.332;6.778;2023-12-07T11:10:29;5.60;99.70
921;DHT22;447;51.332;6.778;2023-12-07T11:13:13;5.60;99.70
921;DHT22;447;51.332;6.778;2023-12-07T11:15:40;5.60;99.70
921;DHT22;447;51.332;6.778;2023-12-07T11:18:06;5.60;99.80
921;DHT22;447;51.332;6.778;2023-12-07T11:23:10;5.70;99.80
921;DHT22;447;51.332;6.778;2023-12-07T11:25:37;5.70;99.70
921;DHT22;447;51.332;6.778;2023-12-07T11:28:07;5.70;99.80
921;DHT22;447;51.332;6.778;2023-12-07T11:30:36;5.70;99.70
921;DHT22;447;51.332;6.778;2023-12-07T11:33:07;5.60;99.70
921;DHT22;447;51.332;6.778;2023-12-07T11:35:33;5.70;99.70
921;DHT22;447;51.332;6.778;2023-12-07T11:38:04;5.70;99.70
921;DHT22;447;51.332;6.778;2023-12-07T11:40:43;5.70;99.70
921;DHT22;447;51.332;6.778;2023-12-07T11:45:56;5.70;99.70
921;DHT22;447;51.332;6.778;2023-12-07T11:48:22;5.70;99.70
921;DHT22;447;51.332;6.778;2023-12-07T11:50:55;5.70;99.70
921;DHT22;447;51.332;6.778;2023-12-07T11:53:28;5.70;99.70
921;DHT22;447;51.332;6.778;2023-12-07T11:55:56;5.70;99.70
921;DHT22;447;51.332;6.778;2023-12-07T11:58:30;5.70;99.70
921;DHT22;447;51.332;6.778;2023-12-07T12:00:57;5.70;99.60
921;DHT22;447;51.332;6.778;2023-12-07T12:03:27;5.70;99.60
921;DHT22;447;51.332;6.778;2023-12-07T12:05:53;5.70;99.60
921;DHT22;447;51.332;6.778;2023-12-07T12:08:20;5.70;99.60
921;DHT22;447;51.332;6.778;2023-12-07T12:10:50;5.70;99.60
921;DHT22;447;51.332;6.778;2023-12-07T12:13:18;5.70;99.60
921;DHT22;447;51.332;6.778;2023-12-07T12:15:45;5.70;99.60
921;DHT22;447;51.332;6.778;2023-12-07T12:18:14;5.70;99.60
921;DHT22;447;51.332;6.778;2023-12-07T12:20:45;5.70;99.60
921;DHT22;447;51.332;6.778;2023-12-07T12:23:13;5.70;99.60
921;DHT22;447;51.332;6.778;2023-12-07T12:28:31;5.70;99.90
921;DHT22;447;51.332;6.778;2023-12-07T12:30:58;5.80;99.60
921;DHT22;447;51.332;6.778;2023-12-07T12:33:26;5.80;99.60
921;DHT22;447;51.332;6.778;2023-12-07T12:36:06;5.70;99.50
921;DHT22;447;51.332;6.778;2023-12-07T12:38:33;5.80;99.50
921;DHT22;447;51.332;6.778;2023-12-07T12:41:01;5.80;99.60
921;DHT22;447;51.332;6.778;2023-12-07T12:43:31;5.70;99.50
921;DHT22;447;51.332;6.778;2023-12-07T12:45:59;5.70;99.50
921;DHT22;447;51.332;6.778;2023-12-07T12:48:28;5.80;99.50
921;DHT22;447;51.332;6.778;2023-12-07T12:50:54;5.80;99.50
921;DHT22;447;51.332;6.778;2023-12-07T12:53:20;5.80;99.50
921;DHT22;447;51.332;6.778;2023-12-07T12:55:49;5.80;99.50
921;DHT22;447;51.332;6.778;2023-12-07T12:58:17;5.80;99.50
921;DHT22;447;51.332;6.778;2023-12-07T13:00:43;5.80;99.50
921;DHT22;447;51.332;6.778;2023-12-07T13:03:10;5.80;99.50
921;DHT22;447;51.332;6.778;2023-12-07T13:05:41;5.80;99.50
921;DHT22;447;51.332;6.778;2023-12-07T13:08:07;5.80;99.50
921;DHT22;447;51.332;6.778;2023-12-07T13:10:35;5.80;99.50
921;DHT22;447;51.332;6.778;2023-12-07T13:13:01;5.80;99.50
921;DHT22;447;51.332;6.778;2023-12-07T13:15:29;5.80;99.40
921;DHT22;447;51.332;6.778;2023-12-07T13:17:55;5.80;99.40
921;DHT22;447;51.332;6.778;2023-12-07T13:20:21;5.80;99.40
921;DHT22;447;51.332;6.778;2023-12-07T13:22:48;5.80;99.40
921;DHT22;447;51.332;6.778;2023-12-07T13:25:14;5.80;99.40
921;DHT22;447;51.332;6.778;2023-12-07T13:27:43;5.80;99.40
921;DHT22;447;51.332;6.778;2023-12-07T13:30:11;5.80;99.40
921;DHT22;447;51.332;6.778;2023-12-07T13:32:37;5.80;99.30
921;DHT22;447;51.332;6.778;2023-12-07T13:39:35;5.80;99.30
921;DHT22;447;51.332;6.778;2023-12-07T13:42:19;5.80;99.30
921;DHT22;447;51.332;6.778;2023-12-07T13:45:32;5.80;99.40
921;DHT22;447;51.332;6.778;2023-12-07T13:47:59;5.80;99.30
921;DHT22;447;51.332;6.778;2023-12-07T13:50:25;5.80;99.40
921;DHT22;447;51.332;6.778;2023-12-07T13:52:51;5.80;99.40
921;DHT22;447;51.332;6.778;2023-12-07T13:55:18;5.80;99.40
921;DHT22;447;51.332;6.778;2023-12-07T13:57:44;5.80;99.40
921;DHT22;447;51.332;6.778;2023-12-07T14:00:10;5.90;99.40
921;DHT22;447;51.332;6.778;2023-12-07T14:02:41;5.90;99.40
921;DHT22;447;51.332;6.778;2023-12-07T14:05:12;5.80;99.30
921;DHT22;447;51.332;6.778;2023-12-07T14:07:40;5.90;99.30
921;DHT22;447;51.332;6.778;2023-12-07T14:10:07;5.90;99.30
921;DHT22;447;51.332;6.778;2023-12-07T14:12:36;5.90;99.30
921;DHT22;447;51.332;6.778;2023-12-07T14:15:04;5.80;99.20
921;DHT22;447;51.332;6.778;2023-12-07T14:17:31;5.90;99.30
921;DHT22;447;51.332;6.778;2023-12-07T14:20:07;5.90;99.30
921;DHT22;447;51.332;6.778;2023-12-07T14:22:35;5.90;99.30
921;DHT22;447;51.332;6.778;2023-12-07T14:25:01;5.90;99.20
921;DHT22;447;51.332;6.778;2023-12-07T14:27:28;5.90;99.20
921;DHT22;447;51.332;6.778;2023-12-07T14:29:54;5.90;99.20
921;DHT22;447;51.332;6.778;2023-12-07T14:32:20;5.90;99.20
921;DHT22;447;51.332;6.778;2023-12-07T14:34:48;5.90;99.30
921;DHT22;447;51.332;6.778;2023-12-07T14:37:14;5.90;99.20
921;DHT22;447;51.332;6.778;2023-12-07T14:39:40;5.90;99.20
921;DHT22;447;51.332;6.778;2023-12-07T14:42:06;5.90;99.20
921;DHT22;447;51.332;6.778;2023-12-07T14:44:33;5.90;99.20
921;DHT22;447;51.332;6.778;2023-12-07T14:47:01;5.90;99.20
921;DHT22;447;51.332;6.778;2023-12-07T14:49:27;5.90;99.20
921;DHT22;447;51.332;6.778;2023-12-07T14:51:55;5.90;99.20
921;DHT22;447;51.332;6.778;2023-12-07T14:54:25;5.90;99.20
921;DHT22;447;51.332;6.778;2023-12-07T14:56:51;5.90;99.20
921;DHT22;447;51.332;6.778;2023-12-07T14:59:18;5.90;99.20
921;DHT22;447;51.332;6.778;2023-12-07T15:01:45;5.90;99.20
921;DHT22;447;51.332;6.778;2023-12-07T15:04:14;5.90;99.20
921;DHT22;447;51.332;6.778;2023-12-07T15:06:42;5.90;99.10
921;DHT22;447;51.332;6.778;2023-12-07T15:09:10;5.90;99.20
921;DHT22;447;51.332;6.778;2023-12-07T15:11:40;5.90;99.10
921;DHT22;447;51.332;6.778;2023-12-07T15:14:06;5.90;99.20
921;DHT22;447;51.332;6.778;2023-12-07T15:16:32;5.90;99.20
921;DHT22;447;51.332;6.778;2023-12-07T15:18:58;5.90;99.20
921;DHT22;447;51.332;6.778;2023-12-07T15:21:27;5.90;99.20
921;DHT22;447;51.332;6.778;2023-12-07T15:23:53;5.90;99.20
921;DHT22;447;51.332;6.778;2023-12-07T15:26:22;5.90;99.20
921;DHT22;447;51.332;6.778;2023-12-07T15:28:48;5.90;99.20
921;DHT22;447;51.332;6.778;2023-12-07T15:31:15;5.90;99.20
921;DHT22;447;51.332;6.778;2023-12-07T15:33:41;5.90;99.20
921;DHT22;447;51.332;6.778;2023-12-07T15:36:11;5.90;99.20
921;DHT22;447;51.332;6.778;2023-12-07T15:38:39;5.90;99.20
921;DHT22;447;51.332;6.778;2023-12-07T15:41:09;5.90;99.20
921;DHT22;447;51.332;6.778;2023-12-07T15:43:35;5.90;99.20
921;DHT22;447;51.332;6.778;2023-12-07T15:46:01;5.90;99.20
921;DHT22;447;51.332;6.778;2023-12-07T15:48:29;5.90;99.20
921;DHT22;447;51.332;6.778;2023-12-07T15:50:55;5.90;99.40
921;DHT22;447;51.332;6.778;2023-12-07T15:53:21;5.90;99.20
921;DHT22;447;51.332;6.778;2023-12-07T15:55:47;5.90;99.20
921;DHT22;447;51.332;6.778;2023-12-07T15:58:13;5.90;99.60
921;DHT22;447;51.332;6.778;2023-12-07T16:00:40;5.90;99.20
921;DHT22;447;51.332;6.778;2023-12-07T16:03:09;5.80;99.20
921;DHT22;447;51.332;6.778;2023-12-07T16:05:35;5.80;99.20
921;DHT22;447;51.332;6.778;2023-12-07T16:08:01;5.90;99.20
921;DHT22;447;51.332;6.778;2023-12-07T16:10:29;5.80;99.10
921;DHT22;447;51.332;6.778;2023-12-07T16:12:55;5.90;99.20
921;DHT22;447;51.332;6.778;2023-12-07T16:15:24;5.80;99.20
921;DHT22;447;51.332;6.778;2023-12-07T16:17:49;5.80;99.20
921;DHT22;447;51.332;6.778;2023-12-07T16:20:16;5.80;99.10
921;DHT22;447;51.332;6.778;2023-12-07T16:22:43;5.80;99.10
921;DHT22;447;51.332;6.778;2023-12-07T16:25:09;5.80;99.10
921;DHT22;447;51.332;6.778;2023-12-07T16:27:37;5.80;99.20
921;DHT22;447;51.332;6.778;2023-12-07T16:30:08;5.80;99.20
921;DHT22;447;51.332;6.778;2023-12-07T16:32:41;5.80;99.10
921;DHT22;447;51.332;6.778;2023-12-07T16:35:14;5.80;99.10
921;DHT22;447;51.332;6.778;2023-12-07T16:37:42;5.80;99.10
921;DHT22;447;51.332;6.778;2023-12-07T16:40:10;5.80;99.10
921;DHT22;447;51.332;6.778;2023-12-07T16:42:40;5.80;99.10
921;DHT22;447;51.332;6.778;2023-12-07T16:45:07;5.80;99.00
921;DHT22;447;51.332;6.778;2023-12-07T16:47:34;5.80;99.00
921;DHT22;447;51.332;6.778;2023-12-07T16:50:04;5.80;99.00
921;DHT22;447;51.332;6.778;2023-12-07T16:52:30;5.80;99.00
921;DHT22;447;51.332;6.778;2023-12-07T16:54:56;5.80;99.00
921;DHT22;447;51.332;6.778;2023-12-07T16:57:22;5.80;99.00
921;DHT22;447;51.332;6.778;2023-12-07T16:59:49;5.80;98.90
921;DHT22;447;51.332;6.778;2023-12-07T17:02:15;5.80;98.90
921;DHT22;447;51.332;6.778;2023-12-07T17:04:45;5.80;98.80
921;DHT22;447;51.332;6.778;2023-12-07T17:07:11;5.80;98.80
921;DHT22;447;51.332;6.778;2023-12-07T17:09:40;5.80;98.80
921;DHT22;447;51.332;6.778;2023-12-07T17:12:06;5.80;98.80